sensor_id;sensor_type;location;lat;lon;timestamp;P1;durP1;ratioP1;P2;durP2;ratioP2
21827;SDS011;11076;47.942;11.804;2022-10-19T00:03:31;9.60;;;7.32;;
21827;SDS011;11076;47.942;11.804;2022-10-19T00:08:35;11.90;;;7.28;;
21827;SDS011;11076;47.942;11.804;2022-10-19T00:13:37;13.20;;;7.13;;
21827;SDS011;11076;47.942;11.804;2022-10-19T00:18:40;12.73;;;7.57;;
21827;SDS011;11076;47.942;11.804;2022-10-19T00:23:47;15.50;;;7.30;;
21827;SDS011;11076;47.942;11.804;2022-10-19T00:28:51;15.20;;;7.60;;
21827;SDS011;11076;47.942;11.804;2022-10-19T00:33:55;14.75;;;7.97;;
21827;SDS011;11076;47.942;11.804;2022-10-19T00:38:59;14.35;;;8.43;;
21827;SDS011;11076;47.942;11.804;2022-10-19T00:44:04;11.93;;;8.23;;
21827;SDS011;11076;47.942;11.804;2022-10-19T00:54:25;9.95;;;6.90;;
21827;SDS011;11076;47.942;11.804;2022-10-19T00:59:28;14.57;;;7.88;;
21827;SDS011;11076;47.942;11.804;2022-10-19T01:04:33;9.25;;;6.78;;
21827;SDS011;11076;47.942;11.804;2022-10-19T01:09:38;16.17;;;7.40;;
21827;SDS011;11076;47.942;11.804;2022-10-19T01:46:59;8.95;;;7.03;;
21827;SDS011;11076;47.942;11.804;2022-10-19T01:52:07;11.93;;;6.75;;
21827;SDS011;11076;47.942;11.804;2022-10-19T01:57:13;9.50;;;6.78;;
21827;SDS011;11076;47.942;11.804;2022-10-19T02:02:21;9.45;;;6.70;;
21827;SDS011;11076;47.942;11.804;2022-10-19T02:07:25;9.05;;;6.65;;
21827;SDS011;11076;47.942;11.804;2022-10-19T02:12:28;13.75;;;7.82;;
21827;SDS011;11076;47.942;11.804;2022-10-19T02:17:34;14.75;;;8.15;;
21827;SDS011;11076;47.942;11.804;2022-10-19T02:22:41;14.85;;;8.07;;
21827;SDS011;11076;47.942;11.804;2022-10-19T02:27:43;15.77;;;9.80;;
21827;SDS011;11076;47.942;11.804;2022-10-19T02:32:46;12.43;;;8.80;;
21827;SDS011;11076;47.942;11.804;2022-10-19T02:37:48;14.70;;;8.95;;
21827;SDS011;11076;47.942;11.804;2022-10-19T02:42:51;20.42;;;8.50;;
21827;SDS011;11076;47.942;11.804;2022-10-19T02:48:02;13.85;;;9.00;;
21827;SDS011;11076;47.942;11.804;2022-10-19T02:53:08;17.75;;;9.43;;
21827;SDS011;11076;47.942;11.804;2022-10-19T02:58:10;11.90;;;8.27;;
21827;SDS011;11076;47.942;11.804;2022-10-19T03:03:12;17.63;;;10.13;;
21827;SDS011;11076;47.942;11.804;2022-10-19T03:08:15;12.65;;;8.77;;
21827;SDS011;11076;47.942;11.804;2022-10-19T03:13:17;20.88;;;12.32;;
21827;SDS011;11076;47.942;11.804;2022-10-19T03:18:20;23.67;;;12.82;;
21827;SDS011;11076;47.942;11.804;2022-10-19T03:23:22;18.85;;;11.48;;
21827;SDS011;11076;47.942;11.804;2022-10-19T03:28:25;16.75;;;11.45;;
21827;SDS011;11076;47.942;11.804;2022-10-19T03:33:27;19.63;;;12.77;;
21827;SDS011;11076;47.942;11.804;2022-10-19T03:38:29;23.85;;;12.73;;
21827;SDS011;11076;47.942;11.804;2022-10-19T03:43:32;20.83;;;13.00;;
21827;SDS011;11076;47.942;11.804;2022-10-19T03:48:34;27.95;;;16.08;;
21827;SDS011;11076;47.942;11.804;2022-10-19T03:53:37;24.30;;;15.63;;
21827;SDS011;11076;47.942;11.804;2022-10-19T03:58:42;25.80;;;17.00;;
21827;SDS011;11076;47.942;11.804;2022-10-19T04:03:45;31.45;;;17.80;;
21827;SDS011;11076;47.942;11.804;2022-10-19T04:08:48;30.83;;;16.83;;
21827;SDS011;11076;47.942;11.804;2022-10-19T04:13:51;27.65;;;17.83;;
21827;SDS011;11076;47.942;11.804;2022-10-19T04:18:54;32.05;;;19.65;;
21827;SDS011;11076;47.942;11.804;2022-10-19T04:24:03;33.85;;;20.08;;
21827;SDS011;11076;47.942;11.804;2022-10-19T04:29:07;34.65;;;19.98;;
21827;SDS011;11076;47.942;11.804;2022-10-19T04:34:10;36.03;;;19.20;;
21827;SDS011;11076;47.942;11.804;2022-10-19T04:39:13;32.88;;;18.02;;
21827;SDS011;11076;47.942;11.804;2022-10-19T04:44:15;34.15;;;16.23;;
21827;SDS011;11076;47.942;11.804;2022-10-19T04:49:18;27.27;;;12.38;;
21827;SDS011;11076;47.942;11.804;2022-10-19T04:54:21;19.45;;;11.40;;
21827;SDS011;11076;47.942;11.804;2022-10-19T04:59:23;17.75;;;10.02;;
21827;SDS011;11076;47.942;11.804;2022-10-19T05:04:25;23.85;;;14.75;;
21827;SDS011;11076;47.942;11.804;2022-10-19T05:09:28;29.92;;;16.42;;
21827;SDS011;11076;47.942;11.804;2022-10-19T05:14:32;32.72;;;17.55;;
21827;SDS011;11076;47.942;11.804;2022-10-19T05:19:35;28.23;;;18.33;;
21827;SDS011;11076;47.942;11.804;2022-10-19T05:24:37;30.90;;;18.95;;
21827;SDS011;11076;47.942;11.804;2022-10-19T05:29:40;28.73;;;18.15;;
21827;SDS011;11076;47.942;11.804;2022-10-19T05:34:42;36.60;;;19.90;;
21827;SDS011;11076;47.942;11.804;2022-10-19T05:39:44;35.20;;;18.63;;
21827;SDS011;11076;47.942;11.804;2022-10-19T05:44:47;35.72;;;19.70;;
21827;SDS011;11076;47.942;11.804;2022-10-19T05:49:49;32.58;;;19.10;;
21827;SDS011;11076;47.942;11.804;2022-10-19T05:54:51;33.30;;;20.88;;
21827;SDS011;11076;47.942;11.804;2022-10-19T05:59:54;34.08;;;19.50;;
21827;SDS011;11076;47.942;11.804;2022-10-19T06:04:59;30.10;;;19.00;;
21827;SDS011;11076;47.942;11.804;2022-10-19T06:10:01;30.65;;;16.33;;
21827;SDS011;11076;47.942;11.804;2022-10-19T06:15:04;28.35;;;15.98;;
21827;SDS011;11076;47.942;11.804;2022-10-19T06:20:06;24.20;;;15.35;;
21827;SDS011;11076;47.942;11.804;2022-10-19T06:25:09;31.30;;;16.45;;
21827;SDS011;11076;47.942;11.804;2022-10-19T06:30:11;25.83;;;14.43;;
21827;SDS011;11076;47.942;11.804;2022-10-19T06:35:14;20.33;;;13.80;;
21827;SDS011;11076;47.942;11.804;2022-10-19T06:40:17;17.70;;;12.13;;
21827;SDS011;11076;47.942;11.804;2022-10-19T06:45:19;24.52;;;14.35;;
21827;SDS011;11076;47.942;11.804;2022-10-19T06:50:21;30.02;;;17.33;;
21827;SDS011;11076;47.942;11.804;2022-10-19T06:55:24;28.83;;;15.15;;
21827;SDS011;11076;47.942;11.804;2022-10-19T07:00:27;26.90;;;15.70;;
21827;SDS011;11076;47.942;11.804;2022-10-19T07:05:30;27.60;;;15.77;;
21827;SDS011;11076;47.942;11.804;2022-10-19T07:10:33;24.17;;;14.75;;
21827;SDS011;11076;47.942;11.804;2022-10-19T07:15:37;21.52;;;13.63;;
21827;SDS011;11076;47.942;11.804;2022-10-19T07:20:39;21.15;;;15.48;;
21827;SDS011;11076;47.942;11.804;2022-10-19T07:25:41;25.73;;;13.82;;
21827;SDS011;11076;47.942;11.804;2022-10-19T07:30:44;21.20;;;12.93;;
21827;SDS011;11076;47.942;11.804;2022-10-19T07:35:46;15.75;;;10.85;;
21827;SDS011;11076;47.942;11.804;2022-10-19T07:40:48;19.60;;;13.00;;
21827;SDS011;11076;47.942;11.804;2022-10-19T07:45:56;16.13;;;10.95;;
21827;SDS011;11076;47.942;11.804;2022-10-19T07:51:05;16.48;;;12.18;;
21827;SDS011;11076;47.942;11.804;2022-10-19T07:56:10;17.70;;;13.43;;
21827;SDS011;11076;47.942;11.804;2022-10-19T08:01:15;23.27;;;13.55;;
21827;SDS011;11076;47.942;11.804;2022-10-19T08:06:20;18.13;;;12.68;;
21827;SDS011;11076;47.942;11.804;2022-10-19T08:11:24;17.77;;;12.95;;
21827;SDS011;11076;47.942;11.804;2022-10-19T08:16:37;15.65;;;11.75;;
21827;SDS011;11076;47.942;11.804;2022-10-19T08:21:45;15.95;;;12.45;;
21827;SDS011;11076;47.942;11.804;2022-10-19T08:26:48;14.30;;;11.63;;
21827;SDS011;11076;47.942;11.804;2022-10-19T08:31:52;19.50;;;10.90;;
21827;SDS011;11076;47.942;11.804;2022-10-19T08:36:55;17.60;;;11.70;;
21827;SDS011;11076;47.942;11.804;2022-10-19T08:42:17;15.93;;;12.10;;
21827;SDS011;11076;47.942;11.804;2022-10-19T08:52:54;18.42;;;13.30;;
21827;SDS011;11076;47.942;11.804;2022-10-19T08:58:11;17.30;;;13.60;;
21827;SDS011;11076;47.942;11.804;2022-10-19T09:03:23;18.45;;;12.40;;
21827;SDS011;11076;47.942;11.804;2022-10-19T09:08:27;14.98;;;11.57;;
21827;SDS011;11076;47.942;11.804;2022-10-19T09:13:33;17.73;;;10.15;;
21827;SDS011;11076;47.942;11.804;2022-10-19T09:18:42;16.38;;;10.50;;
21827;SDS011;11076;47.942;11.804;2022-10-19T09:29:53;9.02;;;7.75;;
21827;SDS011;11076;47.942;11.804;2022-10-19T09:35:02;14.13;;;8.77;;
21827;SDS011;11076;47.942;11.804;2022-10-19T09:40:11;15.00;;;10.85;;
21827;SDS011;11076;47.942;11.804;2022-10-19T09:45:41;16.20;;;11.90;;
21827;SDS011;11076;47.942;11.804;2022-10-19T09:50:43;15.85;;;12.10;;
21827;SDS011;11076;47.942;11.804;2022-10-19T09:55:49;18.08;;;12.98;;
21827;SDS011;11076;47.942;11.804;2022-10-19T10:00:57;21.30;;;15.23;;
21827;SDS011;11076;47.942;11.804;2022-10-19T10:06:04;18.98;;;14.07;;
21827;SDS011;11076;47.942;11.804;2022-10-19T10:11:31;20.52;;;13.15;;
21827;SDS011;11076;47.942;11.804;2022-10-19T10:22:27;19.88;;;10.57;;
21827;SDS011;11076;47.942;11.804;2022-10-19T10:27:35;18.27;;;10.70;;
21827;SDS011;11076;47.942;11.804;2022-10-19T10:32:42;15.77;;;10.35;;
21827;SDS011;11076;47.942;11.804;2022-10-19T10:37:52;17.73;;;10.57;;
21827;SDS011;11076;47.942;11.804;2022-10-19T10:43:32;19.58;;;12.43;;
21827;SDS011;11076;47.942;11.804;2022-10-19T10:48:39;19.27;;;12.43;;
21827;SDS011;11076;47.942;11.804;2022-10-19T10:53:45;19.95;;;13.20;;
21827;SDS011;11076;47.942;11.804;2022-10-19T10:58:58;19.70;;;12.68;;
21827;SDS011;11076;47.942;11.804;2022-10-19T11:04:21;18.55;;;13.60;;
21827;SDS011;11076;47.942;11.804;2022-10-19T11:09:36;15.85;;;11.73;;
21827;SDS011;11076;47.942;11.804;2022-10-19T11:14:45;14.77;;;11.02;;
21827;SDS011;11076;47.942;11.804;2022-10-19T11:19:51;18.27;;;12.20;;
21827;SDS011;11076;47.942;11.804;2022-10-19T11:25:04;19.83;;;13.68;;
21827;SDS011;11076;47.942;11.804;2022-10-19T11:30:31;23.20;;;13.23;;
21827;SDS011;11076;47.942;11.804;2022-10-19T11:51:45;15.27;;;11.98;;
21827;SDS011;11076;47.942;11.804;2022-10-19T11:57:00;15.95;;;11.05;;
21827;SDS011;11076;47.942;11.804;2022-10-19T12:17:38;13.68;;;10.18;;
21827;SDS011;11076;47.942;11.804;2022-10-19T12:22:44;13.65;;;11.35;;
21827;SDS011;11076;47.942;11.804;2022-10-19T12:27:49;18.92;;;10.38;;
21827;SDS011;11076;47.942;11.804;2022-10-19T12:33:11;13.48;;;9.98;;
21827;SDS011;11076;47.942;11.804;2022-10-19T12:38:26;11.27;;;9.90;;
21827;SDS011;11076;47.942;11.804;2022-10-19T12:54:33;14.65;;;10.48;;
21827;SDS011;11076;47.942;11.804;2022-10-19T12:59:38;14.55;;;10.20;;
21827;SDS011;11076;47.942;11.804;2022-10-19T13:04:41;13.68;;;9.63;;
21827;SDS011;11076;47.942;11.804;2022-10-19T13:10:00;12.05;;;10.60;;
21827;SDS011;11076;47.942;11.804;2022-10-19T13:15:08;10.60;;;9.25;;
21827;SDS011;11076;47.942;11.804;2022-10-19T13:25:42;13.07;;;11.05;;
21827;SDS011;11076;47.942;11.804;2022-10-19T13:35:47;12.20;;;10.38;;
21827;SDS011;11076;47.942;11.804;2022-10-19T13:46:14;15.45;;;10.45;;
21827;SDS011;11076;47.942;11.804;2022-10-19T14:07:20;24.38;;;12.88;;
21827;SDS011;11076;47.942;11.804;2022-10-19T14:12:30;16.77;;;13.55;;
21827;SDS011;11076;47.942;11.804;2022-10-19T14:17:40;20.92;;;14.38;;
21827;SDS011;11076;47.942;11.804;2022-10-19T14:22:43;15.63;;;11.85;;
21827;SDS011;11076;47.942;11.804;2022-10-19T14:27:46;18.95;;;11.85;;
21827;SDS011;11076;47.942;11.804;2022-10-19T14:32:54;15.45;;;12.02;;
21827;SDS011;11076;47.942;11.804;2022-10-19T14:37:57;17.38;;;12.10;;
21827;SDS011;11076;47.942;11.804;2022-10-19T14:43:01;18.02;;;11.07;;
21827;SDS011;11076;47.942;11.804;2022-10-19T14:48:04;17.00;;;12.23;;
21827;SDS011;11076;47.942;11.804;2022-10-19T14:58:31;19.33;;;12.98;;
21827;SDS011;11076;47.942;11.804;2022-10-19T15:03:40;19.75;;;13.23;;
21827;SDS011;11076;47.942;11.804;2022-10-19T15:08:46;18.60;;;13.40;;
21827;SDS011;11076;47.942;11.804;2022-10-19T15:13:55;20.30;;;14.23;;
21827;SDS011;11076;47.942;11.804;2022-10-19T15:24:34;20.40;;;14.60;;
21827;SDS011;11076;47.942;11.804;2022-10-19T15:29:37;22.38;;;15.63;;
21827;SDS011;11076;47.942;11.804;2022-10-19T15:34:41;27.70;;;14.32;;
21827;SDS011;11076;47.942;11.804;2022-10-19T15:39:45;21.85;;;14.95;;
21827;SDS011;11076;47.942;11.804;2022-10-19T15:44:49;22.30;;;14.52;;
21827;SDS011;11076;47.942;11.804;2022-10-19T15:49:53;24.05;;;13.73;;
21827;SDS011;11076;47.942;11.804;2022-10-19T15:54:58;22.80;;;15.00;;
21827;SDS011;11076;47.942;11.804;2022-10-19T16:00:13;19.90;;;14.80;;
21827;SDS011;11076;47.942;11.804;2022-10-19T16:05:17;20.42;;;14.48;;
21827;SDS011;11076;47.942;11.804;2022-10-19T16:10:21;23.92;;;15.30;;
21827;SDS011;11076;47.942;11.804;2022-10-19T16:15:25;23.20;;;13.30;;
21827;SDS011;11076;47.942;11.804;2022-10-19T16:20:28;24.98;;;13.98;;
21827;SDS011;11076;47.942;11.804;2022-10-19T16:25:31;27.27;;;14.00;;
21827;SDS011;11076;47.942;11.804;2022-10-19T16:30:33;21.02;;;13.27;;
21827;SDS011;11076;47.942;11.804;2022-10-19T16:35:36;19.23;;;13.13;;
21827;SDS011;11076;47.942;11.804;2022-10-19T16:40:38;18.08;;;12.82;;
21827;SDS011;11076;47.942;11.804;2022-10-19T16:45:41;18.48;;;11.23;;
21827;SDS011;11076;47.942;11.804;2022-10-19T16:50:44;14.27;;;9.85;;
21827;SDS011;11076;47.942;11.804;2022-10-19T16:55:46;14.73;;;10.98;;
21827;SDS011;11076;47.942;11.804;2022-10-19T17:00:49;15.10;;;10.30;;
21827;SDS011;11076;47.942;11.804;2022-10-19T17:05:51;16.38;;;10.48;;
21827;SDS011;11076;47.942;11.804;2022-10-19T17:10:54;11.35;;;9.65;;
21827;SDS011;11076;47.942;11.804;2022-10-19T17:16:00;12.65;;;10.07;;
21827;SDS011;11076;47.942;11.804;2022-10-19T17:21:04;14.07;;;10.13;;
21827;SDS011;11076;47.942;11.804;2022-10-19T17:26:08;16.77;;;10.50;;
21827;SDS011;11076;47.942;11.804;2022-10-19T17:31:12;16.70;;;10.32;;
21827;SDS011;11076;47.942;11.804;2022-10-19T17:36:16;13.63;;;10.27;;
21827;SDS011;11076;47.942;11.804;2022-10-19T17:41:21;15.93;;;10.10;;
21827;SDS011;11076;47.942;11.804;2022-10-19T17:46:25;12.25;;;9.68;;
21827;SDS011;11076;47.942;11.804;2022-10-19T17:51:32;12.95;;;9.45;;
21827;SDS011;11076;47.942;11.804;2022-10-19T17:56:37;16.20;;;10.35;;
21827;SDS011;11076;47.942;11.804;2022-10-19T18:01:40;11.32;;;9.70;;
21827;SDS011;11076;47.942;11.804;2022-10-19T18:06:43;18.00;;;10.10;;
21827;SDS011;11076;47.942;11.804;2022-10-19T18:11:45;12.55;;;9.15;;
21827;SDS011;11076;47.942;11.804;2022-10-19T18:16:48;12.77;;;8.93;;
21827;SDS011;11076;47.942;11.804;2022-10-19T18:21:52;11.93;;;9.20;;
21827;SDS011;11076;47.942;11.804;2022-10-19T18:26:55;9.88;;;8.32;;
21827;SDS011;11076;47.942;11.804;2022-10-19T18:31:57;9.75;;;7.88;;
21827;SDS011;11076;47.942;11.804;2022-10-19T18:37:00;19.70;;;9.90;;
21827;SDS011;11076;47.942;11.804;2022-10-19T18:42:02;14.98;;;10.35;;
21827;SDS011;11076;47.942;11.804;2022-10-19T18:47:04;11.77;;;8.65;;
21827;SDS011;11076;47.942;11.804;2022-10-19T18:52:07;19.10;;;10.70;;
21827;SDS011;11076;47.942;11.804;2022-10-19T18:57:09;12.88;;;10.32;;
21827;SDS011;11076;47.942;11.804;2022-10-19T19:02:12;16.23;;;11.65;;
21827;SDS011;11076;47.942;11.804;2022-10-19T19:07:14;21.95;;;12.57;;
21827;SDS011;11076;47.942;11.804;2022-10-19T19:12:16;17.25;;;12.93;;
21827;SDS011;11076;47.942;11.804;2022-10-19T19:17:19;17.63;;;14.23;;
21827;SDS011;11076;47.942;11.804;2022-10-19T19:22:21;20.92;;;13.95;;
21827;SDS011;11076;47.942;11.804;2022-10-19T19:27:27;22.27;;;14.10;;
21827;SDS011;11076;47.942;11.804;2022-10-19T19:32:33;18.80;;;13.32;;
21827;SDS011;11076;47.942;11.804;2022-10-19T19:37:35;26.85;;;15.23;;
21827;SDS011;11076;47.942;11.804;2022-10-19T19:42:38;26.85;;;18.00;;
21827;SDS011;11076;47.942;11.804;2022-10-19T19:47:41;28.02;;;17.33;;
21827;SDS011;11076;47.942;11.804;2022-10-19T19:52:43;29.95;;;18.75;;
21827;SDS011;11076;47.942;11.804;2022-10-19T19:57:45;32.30;;;19.20;;
21827;SDS011;11076;47.942;11.804;2022-10-19T20:02:51;36.20;;;22.48;;
21827;SDS011;11076;47.942;11.804;2022-10-19T20:07:57;34.47;;;19.00;;
21827;SDS011;11076;47.942;11.804;2022-10-19T20:13:00;40.67;;;22.33;;
21827;SDS011;11076;47.942;11.804;2022-10-19T20:18:02;38.03;;;21.58;;
21827;SDS011;11076;47.942;11.804;2022-10-19T20:23:04;39.95;;;21.77;;
21827;SDS011;11076;47.942;11.804;2022-10-19T20:28:07;37.10;;;20.02;;
21827;SDS011;11076;47.942;11.804;2022-10-19T20:33:09;35.25;;;20.13;;
21827;SDS011;11076;47.942;11.804;2022-10-19T20:38:12;37.78;;;20.42;;
21827;SDS011;11076;47.942;11.804;2022-10-19T20:43:14;37.40;;;20.23;;
21827;SDS011;11076;47.942;11.804;2022-10-19T20:48:18;32.92;;;19.15;;
21827;SDS011;11076;47.942;11.804;2022-10-19T20:53:20;33.35;;;19.17;;
21827;SDS011;11076;47.942;11.804;2022-10-19T20:58:23;33.20;;;19.90;;
21827;SDS011;11076;47.942;11.804;2022-10-19T21:03:25;32.08;;;18.42;;
21827;SDS011;11076;47.942;11.804;2022-10-19T21:08:27;38.97;;;20.80;;
21827;SDS011;11076;47.942;11.804;2022-10-19T21:13:30;34.47;;;19.65;;
21827;SDS011;11076;47.942;11.804;2022-10-19T21:18:32;38.53;;;20.35;;
21827;SDS011;11076;47.942;11.804;2022-10-19T21:23:35;39.58;;;20.83;;
21827;SDS011;11076;47.942;11.804;2022-10-19T21:28:37;39.60;;;20.17;;
21827;SDS011;11076;47.942;11.804;2022-10-19T21:33:41;36.70;;;20.23;;
21827;SDS011;11076;47.942;11.804;2022-10-19T21:38:44;37.03;;;20.10;;
21827;SDS011;11076;47.942;11.804;2022-10-19T21:43:46;36.67;;;18.65;;
21827;SDS011;11076;47.942;11.804;2022-10-19T21:48:49;37.85;;;18.92;;
21827;SDS011;11076;47.942;11.804;2022-10-19T21:53:52;39.50;;;19.42;;
21827;SDS011;11076;47.942;11.804;2022-10-19T21:58:54;40.17;;;19.13;;
21827;SDS011;11076;47.942;11.804;2022-10-19T22:03:57;37.58;;;18.23;;
21827;SDS011;11076;47.942;11.804;2022-10-19T22:09:01;48.35;;;21.08;;
21827;SDS011;11076;47.942;11.804;2022-10-19T22:14:05;46.70;;;20.88;;
21827;SDS011;11076;47.942;11.804;2022-10-19T22:19:08;46.30;;;20.95;;
21827;SDS011;11076;47.942;11.804;2022-10-19T22:24:12;51.97;;;23.45;;
21827;SDS011;11076;47.942;11.804;2022-10-19T22:29:15;48.78;;;23.08;;
21827;SDS011;11076;47.942;11.804;2022-10-19T22:34:18;45.13;;;23.48;;
21827;SDS011;11076;47.942;11.804;2022-10-19T22:39:20;46.25;;;22.33;;
21827;SDS011;11076;47.942;11.804;2022-10-19T22:44:24;52.55;;;22.80;;
21827;SDS011;11076;47.942;11.804;2022-10-19T22:49:26;47.25;;;23.40;;
21827;SDS011;11076;47.942;11.804;2022-10-19T22:54:28;56.25;;;27.60;;
21827;SDS011;11076;47.942;11.804;2022-10-19T22:59:31;70.13;;;27.75;;
21827;SDS011;11076;47.942;11.804;2022-10-19T23:04:34;53.45;;;24.98;;
21827;SDS011;11076;47.942;11.804;2022-10-19T23:09:36;58.70;;;27.38;;
21827;SDS011;11076;47.942;11.804;2022-10-19T23:14:39;55.70;;;28.27;;
21827;SDS011;11076;47.942;11.804;2022-10-19T23:19:42;52.45;;;25.65;;
21827;SDS011;11076;47.942;11.804;2022-10-19T23:24:44;72.03;;;33.67;;
21827;SDS011;11076;47.942;11.804;2022-10-19T23:29:47;85.07;;;32.33;;
21827;SDS011;11076;47.942;11.804;2022-10-19T23:34:49;86.60;;;29.25;;
21827;SDS011;11076;47.942;11.804;2022-10-19T23:39:51;90.78;;;37.65;;
21827;SDS011;11076;47.942;11.804;2022-10-19T23:44:54;92.78;;;36.85;;
21827;SDS011;11076;47.942;11.804;2022-10-19T23:49:56;117.97;;;35.50;;
21827;SDS011;11076;47.942;11.804;2022-10-19T23:54:59;183.88;;;37.95;;
